Tillson, NY (12486)

6:43 PM EST on February 06, 2016 (GMT -0500)
87 Grist Mill Road | | Change Station
CLOSE
Current Station
Personal Weather Station
Location: Tillson, NY
Elevation: 244 ft
Nearby Weather Stations

Elev 244 ft 41.83 °N, 74.06 °W | Updated 6 seconds ago

Clear
Clear
36.8 °F
Feels Like 37 °F
N
0.0
Wind Variable Wind from SSW
Gusts 10.0 mph

Today
High -- | Low -- °F
--% Chance of Precip.
Yesterday
High -- | Low -- °F
Precip. -- in
Pressure 30.24 in
Visibility 10.0 miles
Clouds Clear
Windchill 37 °F
Dew Point 22 °F
Humidity 54%
Rainfall 0.00 in
Snow Depth Not available.
7:03 AM 5:17 PM
Waning Crescent, 3% visible
METAR KPOU 062253Z AUTO 19005KT 10SM CLR 04/M09 A3024 RMK AO2 SLP240 T00391089
Pressure 30.24 in
Visibility 10.0 miles
Clouds Clear
Windchill 37 °F
Dew Point 22 °F
Humidity 54%
Rainfall 0.00 in
Snow Depth Not available.
7:03 AM 5:17 PM
Waning Crescent, 3% visible
METAR KPOU 062253Z AUTO 19005KT 10SM CLR 04/M09 A3024 RMK AO2 SLP240 T00391089

10-Day Weather Forecast

Almanac

Astronomy

Feb. 06, 2016 Rise Set
Actual Time
Civil Twilight
Nautical Twilight
Astronomical Twilight
Moon
Length of Visible Light
Length of Day
Tomorrow will be .
, % of the Moon is Illuminated

Today's Extremes

State Highs State Lows

Community

WunderPhotos

Upload Photos

1,891,098 photos uploaded!

WunderBlog® & News

Nearby

Air Quality

  Air Quality AQ Index Pollutant
Not available.

Snow Depth

Station Depth Elevation

Earthquake Activity

City Distance Mag. Time & Date
Minimum magnitude displayed is 2.5.

Coastal Water Temperatures

Place Temperature

Stations

Nearby Weather Stations

Station Location Temp. Windchill Dew Point Humidity Wind Precip. Elev Updated Type
                   

Watches & Warnings

There are currently no watches in effect.